sensor_id;sensor_type;location;lat;lon;timestamp;P1;durP1;ratioP1;P2;durP2;ratioP2
30723;SDS011;17473;52.286;20.930;2023-05-10T00:01:07;7.83;;;5.27;;
30723;SDS011;17473;52.286;20.930;2023-05-10T00:03:35;10.13;;;5.03;;
30723;SDS011;17473;52.286;20.930;2023-05-10T00:06:02;12.03;;;5.27;;
30723;SDS011;17473;52.286;20.930;2023-05-10T00:08:29;7.80;;;5.50;;
30723;SDS011;17473;52.286;20.930;2023-05-10T00:10:56;9.47;;;5.57;;
30723;SDS011;17473;52.286;20.930;2023-05-10T00:13:23;9.57;;;5.10;;
30723;SDS011;17473;52.286;20.930;2023-05-10T00:15:51;9.57;;;5.50;;
30723;SDS011;17473;52.286;20.930;2023-05-10T00:18:18;7.93;;;5.13;;
30723;SDS011;17473;52.286;20.930;2023-05-10T00:20:45;10.40;;;5.50;;
30723;SDS011;17473;52.286;20.930;2023-05-10T00:23:15;11.47;;;5.63;;
30723;SDS011;17473;52.286;20.930;2023-05-10T00:25:42;8.33;;;5.33;;
30723;SDS011;17473;52.286;20.930;2023-05-10T00:28:09;7.30;;;4.63;;
30723;SDS011;17473;52.286;20.930;2023-05-10T00:30:36;10.83;;;5.10;;
30723;SDS011;17473;52.286;20.930;2023-05-10T00:33:03;10.63;;;5.73;;
30723;SDS011;17473;52.286;20.930;2023-05-10T00:35:30;8.77;;;5.03;;
30723;SDS011;17473;52.286;20.930;2023-05-10T00:37:57;11.40;;;5.50;;
30723;SDS011;17473;52.286;20.930;2023-05-10T00:40:24;9.67;;;5.33;;
30723;SDS011;17473;52.286;20.930;2023-05-10T00:42:51;6.13;;;4.30;;
30723;SDS011;17473;52.286;20.930;2023-05-10T00:45:18;10.73;;;4.70;;
30723;SDS011;17473;52.286;20.930;2023-05-10T00:47:46;11.37;;;4.50;;
30723;SDS011;17473;52.286;20.930;2023-05-10T00:50:14;6.43;;;4.33;;
30723;SDS011;17473;52.286;20.930;2023-05-10T00:52:42;12.60;;;4.83;;
30723;SDS011;17473;52.286;20.930;2023-05-10T00:55:10;8.07;;;4.70;;
30723;SDS011;17473;52.286;20.930;2023-05-10T00:57:38;10.17;;;4.70;;
30723;SDS011;17473;52.286;20.930;2023-05-10T01:00:06;9.50;;;4.97;;
30723;SDS011;17473;52.286;20.930;2023-05-10T01:02:34;7.13;;;4.37;;
30723;SDS011;17473;52.286;20.930;2023-05-10T01:05:02;12.30;;;4.77;;
30723;SDS011;17473;52.286;20.930;2023-05-10T01:07:30;7.30;;;4.47;;
30723;SDS011;17473;52.286;20.930;2023-05-10T01:09:57;8.00;;;4.40;;
30723;SDS011;17473;52.286;20.930;2023-05-10T01:12:24;8.37;;;4.27;;
30723;SDS011;17473;52.286;20.930;2023-05-10T01:14:52;9.37;;;4.73;;
30723;SDS011;17473;52.286;20.930;2023-05-10T01:17:20;6.20;;;4.40;;
30723;SDS011;17473;52.286;20.930;2023-05-10T01:19:48;9.17;;;4.90;;
30723;SDS011;17473;52.286;20.930;2023-05-10T01:22:26;10.97;;;4.70;;
30723;SDS011;17473;52.286;20.930;2023-05-10T01:34:35;8.37;;;4.67;;
30723;SDS011;17473;52.286;20.930;2023-05-10T01:37:30;7.73;;;4.27;;
30723;SDS011;17473;52.286;20.930;2023-05-10T01:40:38;12.23;;;4.60;;
30723;SDS011;17473;52.286;20.930;2023-05-10T01:43:17;6.80;;;4.33;;
30723;SDS011;17473;52.286;20.930;2023-05-10T01:46:16;7.90;;;4.47;;
30723;SDS011;17473;52.286;20.930;2023-05-10T01:48:54;8.07;;;4.57;;
30723;SDS011;17473;52.286;20.930;2023-05-10T01:51:24;8.53;;;4.63;;
30723;SDS011;17473;52.286;20.930;2023-05-10T01:54:00;9.73;;;5.07;;
30723;SDS011;17473;52.286;20.930;2023-05-10T01:56:30;9.73;;;4.70;;
30723;SDS011;17473;52.286;20.930;2023-05-10T01:59:02;8.70;;;4.20;;
30723;SDS011;17473;52.286;20.930;2023-05-10T02:01:37;7.20;;;4.03;;
30723;SDS011;17473;52.286;20.930;2023-05-10T02:04:07;7.63;;;5.07;;
30723;SDS011;17473;52.286;20.930;2023-05-10T02:06:36;8.10;;;4.30;;
30723;SDS011;17473;52.286;20.930;2023-05-10T02:09:06;9.20;;;4.17;;
30723;SDS011;17473;52.286;20.930;2023-05-10T02:11:34;8.03;;;4.43;;
30723;SDS011;17473;52.286;20.930;2023-05-10T02:14:03;11.33;;;5.23;;
30723;SDS011;17473;52.286;20.930;2023-05-10T02:16:35;7.60;;;4.73;;
30723;SDS011;17473;52.286;20.930;2023-05-10T02:19:04;8.50;;;4.67;;
30723;SDS011;17473;52.286;20.930;2023-05-10T02:21:34;7.97;;;4.53;;
30723;SDS011;17473;52.286;20.930;2023-05-10T02:24:03;9.97;;;4.97;;
30723;SDS011;17473;52.286;20.930;2023-05-10T02:26:32;5.43;;;3.87;;
30723;SDS011;17473;52.286;20.930;2023-05-10T02:29:02;5.00;;;3.83;;
30723;SDS011;17473;52.286;20.930;2023-05-10T02:31:32;10.93;;;4.40;;
30723;SDS011;17473;52.286;20.930;2023-05-10T02:34:01;6.07;;;4.10;;
30723;SDS011;17473;52.286;20.930;2023-05-10T02:36:30;6.77;;;4.03;;
30723;SDS011;17473;52.286;20.930;2023-05-10T02:38:58;8.73;;;4.57;;
30723;SDS011;17473;52.286;20.930;2023-05-10T02:41:28;8.03;;;4.70;;
30723;SDS011;17473;52.286;20.930;2023-05-10T02:43:59;6.20;;;4.43;;
30723;SDS011;17473;52.286;20.930;2023-05-10T02:46:29;9.57;;;4.30;;
30723;SDS011;17473;52.286;20.930;2023-05-10T02:48:57;9.97;;;4.17;;
30723;SDS011;17473;52.286;20.930;2023-05-10T02:51:25;8.40;;;4.50;;
30723;SDS011;17473;52.286;20.930;2023-05-10T02:54:01;7.17;;;4.27;;
30723;SDS011;17473;52.286;20.930;2023-05-10T02:56:36;8.57;;;4.80;;
30723;SDS011;17473;52.286;20.930;2023-05-10T02:59:11;8.00;;;4.50;;
30723;SDS011;17473;52.286;20.930;2023-05-10T03:01:38;11.27;;;4.87;;
30723;SDS011;17473;52.286;20.930;2023-05-10T03:04:06;6.93;;;4.30;;
30723;SDS011;17473;52.286;20.930;2023-05-10T03:06:33;7.93;;;3.90;;
30723;SDS011;17473;52.286;20.930;2023-05-10T03:09:01;7.23;;;4.47;;
30723;SDS011;17473;52.286;20.930;2023-05-10T03:17:39;9.27;;;4.90;;
30723;SDS011;17473;52.286;20.930;2023-05-10T03:20:35;11.63;;;4.87;;
30723;SDS011;17473;52.286;20.930;2023-05-10T03:25:44;11.77;;;4.50;;
30723;SDS011;17473;52.286;20.930;2023-05-10T03:28:16;7.30;;;4.70;;
30723;SDS011;17473;52.286;20.930;2023-05-10T03:30:44;9.00;;;4.20;;
30723;SDS011;17473;52.286;20.930;2023-05-10T03:33:12;7.70;;;4.97;;
30723;SDS011;17473;52.286;20.930;2023-05-10T03:35:40;12.33;;;4.30;;
30723;SDS011;17473;52.286;20.930;2023-05-10T03:38:07;10.37;;;4.73;;
30723;SDS011;17473;52.286;20.930;2023-05-10T03:40:34;9.53;;;5.33;;
30723;SDS011;17473;52.286;20.930;2023-05-10T03:43:01;7.33;;;4.20;;
30723;SDS011;17473;52.286;20.930;2023-05-10T03:45:28;7.30;;;4.20;;
30723;SDS011;17473;52.286;20.930;2023-05-10T03:47:55;12.63;;;4.27;;
30723;SDS011;17473;52.286;20.930;2023-05-10T03:50:24;11.82;;;4.97;;
30723;SDS011;17473;52.286;20.930;2023-05-10T03:52:52;14.93;;;4.95;;
30723;SDS011;17473;52.286;20.930;2023-05-10T03:55:20;6.82;;;4.60;;
30723;SDS011;17473;52.286;20.930;2023-05-10T03:57:48;11.38;;;4.53;;
30723;SDS011;17473;52.286;20.930;2023-05-10T04:00:20;12.32;;;4.35;;
30723;SDS011;17473;52.286;20.930;2023-05-10T04:02:47;9.40;;;5.00;;
30723;SDS011;17473;52.286;20.930;2023-05-10T04:05:14;10.52;;;4.50;;
30723;SDS011;17473;52.286;20.930;2023-05-10T04:07:41;7.00;;;4.47;;
30723;SDS011;17473;52.286;20.930;2023-05-10T04:10:10;12.50;;;4.95;;
30723;SDS011;17473;52.286;20.930;2023-05-10T04:12:38;6.72;;;4.18;;
30723;SDS011;17473;52.286;20.930;2023-05-10T04:15:05;9.40;;;4.60;;
30723;SDS011;17473;52.286;20.930;2023-05-10T04:17:33;8.55;;;4.40;;
30723;SDS011;17473;52.286;20.930;2023-05-10T04:20:00;6.07;;;4.38;;
30723;SDS011;17473;52.286;20.930;2023-05-10T04:22:27;8.07;;;4.53;;
30723;SDS011;17473;52.286;20.930;2023-05-10T04:24:55;6.57;;;4.43;;
30723;SDS011;17473;52.286;20.930;2023-05-10T04:27:22;8.43;;;4.68;;
30723;SDS011;17473;52.286;20.930;2023-05-10T04:29:49;6.90;;;4.63;;
30723;SDS011;17473;52.286;20.930;2023-05-10T04:32:16;13.60;;;5.13;;
30723;SDS011;17473;52.286;20.930;2023-05-10T04:34:43;7.75;;;4.57;;
30723;SDS011;17473;52.286;20.930;2023-05-10T04:37:10;9.82;;;4.82;;
30723;SDS011;17473;52.286;20.930;2023-05-10T04:39:37;11.15;;;4.95;;
30723;SDS011;17473;52.286;20.930;2023-05-10T04:42:07;10.32;;;4.75;;
30723;SDS011;17473;52.286;20.930;2023-05-10T04:44:34;6.68;;;3.95;;
30723;SDS011;17473;52.286;20.930;2023-05-10T04:47:02;6.53;;;4.13;;
30723;SDS011;17473;52.286;20.930;2023-05-10T04:49:29;9.07;;;4.10;;
30723;SDS011;17473;52.286;20.930;2023-05-10T04:51:56;6.95;;;4.15;;
30723;SDS011;17473;52.286;20.930;2023-05-10T04:54:23;7.50;;;4.25;;
30723;SDS011;17473;52.286;20.930;2023-05-10T04:56:51;9.77;;;4.47;;
30723;SDS011;17473;52.286;20.930;2023-05-10T04:59:18;6.32;;;4.10;;
30723;SDS011;17473;52.286;20.930;2023-05-10T05:01:44;9.98;;;3.88;;
30723;SDS011;17473;52.286;20.930;2023-05-10T05:04:12;6.90;;;4.35;;
30723;SDS011;17473;52.286;20.930;2023-05-10T05:06:39;6.15;;;4.00;;
30723;SDS011;17473;52.286;20.930;2023-05-10T05:09:06;8.07;;;4.00;;
30723;SDS011;17473;52.286;20.930;2023-05-10T05:11:33;9.25;;;4.88;;
30723;SDS011;17473;52.286;20.930;2023-05-10T05:14:00;10.40;;;3.90;;
30723;SDS011;17473;52.286;20.930;2023-05-10T05:16:30;10.55;;;4.18;;
30723;SDS011;17473;52.286;20.930;2023-05-10T05:18:59;9.60;;;4.68;;
30723;SDS011;17473;52.286;20.930;2023-05-10T05:21:26;8.82;;;4.68;;
30723;SDS011;17473;52.286;20.930;2023-05-10T05:23:54;6.10;;;3.88;;
30723;SDS011;17473;52.286;20.930;2023-05-10T05:26:21;7.30;;;4.32;;
30723;SDS011;17473;52.286;20.930;2023-05-10T05:28:48;12.13;;;4.47;;
30723;SDS011;17473;52.286;20.930;2023-05-10T05:31:18;8.93;;;4.15;;
30723;SDS011;17473;52.286;20.930;2023-05-10T05:33:46;11.10;;;3.92;;
30723;SDS011;17473;52.286;20.930;2023-05-10T05:36:13;6.25;;;4.22;;
30723;SDS011;17473;52.286;20.930;2023-05-10T05:38:40;10.93;;;3.67;;
30723;SDS011;17473;52.286;20.930;2023-05-10T05:41:07;13.98;;;4.60;;
30723;SDS011;17473;52.286;20.930;2023-05-10T05:43:34;17.63;;;4.13;;
30723;SDS011;17473;52.286;20.930;2023-05-10T05:46:03;10.82;;;3.60;;
30723;SDS011;17473;52.286;20.930;2023-05-10T05:48:31;8.02;;;4.10;;
30723;SDS011;17473;52.286;20.930;2023-05-10T05:50:58;7.97;;;3.92;;
30723;SDS011;17473;52.286;20.930;2023-05-10T05:53:25;7.30;;;3.30;;
30723;SDS011;17473;52.286;20.930;2023-05-10T05:55:56;11.60;;;3.63;;
30723;SDS011;17473;52.286;20.930;2023-05-10T05:58:25;12.07;;;3.67;;
30723;SDS011;17473;52.286;20.930;2023-05-10T06:00:53;6.80;;;3.88;;
30723;SDS011;17473;52.286;20.930;2023-05-10T06:03:20;10.73;;;3.75;;
30723;SDS011;17473;52.286;20.930;2023-05-10T06:05:47;11.00;;;4.63;;
30723;SDS011;17473;52.286;20.930;2023-05-10T06:08:14;8.00;;;3.97;;
30723;SDS011;17473;52.286;20.930;2023-05-10T06:10:41;5.13;;;3.28;;
30723;SDS011;17473;52.286;20.930;2023-05-10T06:13:08;11.40;;;3.97;;
30723;SDS011;17473;52.286;20.930;2023-05-10T06:15:36;8.43;;;3.50;;
30723;SDS011;17473;52.286;20.930;2023-05-10T06:18:03;5.00;;;3.25;;
30723;SDS011;17473;52.286;20.930;2023-05-10T06:20:30;5.55;;;3.45;;
30723;SDS011;17473;52.286;20.930;2023-05-10T06:22:58;6.95;;;3.20;;
30723;SDS011;17473;52.286;20.930;2023-05-10T06:25:25;5.47;;;3.28;;
30723;SDS011;17473;52.286;20.930;2023-05-10T06:27:52;9.50;;;3.55;;
30723;SDS011;17473;52.286;20.930;2023-05-10T06:30:24;6.53;;;3.17;;
30723;SDS011;17473;52.286;20.930;2023-05-10T06:32:53;11.85;;;3.35;;
30723;SDS011;17473;52.286;20.930;2023-05-10T06:35:21;3.47;;;2.70;;
30723;SDS011;17473;52.286;20.930;2023-05-10T06:37:49;11.20;;;3.40;;
30723;SDS011;17473;52.286;20.930;2023-05-10T06:40:17;10.40;;;3.10;;
30723;SDS011;17473;52.286;20.930;2023-05-10T06:42:44;6.40;;;3.35;;
30723;SDS011;17473;52.286;20.930;2023-05-10T06:45:12;9.02;;;3.42;;
30723;SDS011;17473;52.286;20.930;2023-05-10T06:47:41;4.07;;;2.83;;
30723;SDS011;17473;52.286;20.930;2023-05-10T06:50:09;4.85;;;3.10;;
30723;SDS011;17473;52.286;20.930;2023-05-10T06:52:37;10.45;;;3.10;;
30723;SDS011;17473;52.286;20.930;2023-05-10T06:55:05;8.50;;;3.45;;
30723;SDS011;17473;52.286;20.930;2023-05-10T06:57:32;9.45;;;3.08;;
30723;SDS011;17473;52.286;20.930;2023-05-10T07:00:00;6.82;;;2.72;;
30723;SDS011;17473;52.286;20.930;2023-05-10T07:02:27;6.57;;;3.30;;
30723;SDS011;17473;52.286;20.930;2023-05-10T07:04:54;10.48;;;2.78;;
30723;SDS011;17473;52.286;20.930;2023-05-10T07:07:24;9.10;;;2.60;;
30723;SDS011;17473;52.286;20.930;2023-05-10T07:09:51;6.75;;;2.67;;
30723;SDS011;17473;52.286;20.930;2023-05-10T07:12:18;8.32;;;2.95;;
30723;SDS011;17473;52.286;20.930;2023-05-10T07:14:45;5.07;;;2.50;;
30723;SDS011;17473;52.286;20.930;2023-05-10T07:17:12;5.28;;;2.38;;
30723;SDS011;17473;52.286;20.930;2023-05-10T07:19:39;4.72;;;2.78;;
30723;SDS011;17473;52.286;20.930;2023-05-10T07:22:06;8.25;;;2.60;;
30723;SDS011;17473;52.286;20.930;2023-05-10T07:24:34;5.20;;;2.40;;
30723;SDS011;17473;52.286;20.930;2023-05-10T07:27:01;3.70;;;2.47;;
30723;SDS011;17473;52.286;20.930;2023-05-10T07:29:28;3.88;;;2.40;;
30723;SDS011;17473;52.286;20.930;2023-05-10T07:31:55;7.85;;;2.70;;
30723;SDS011;17473;52.286;20.930;2023-05-10T07:34:24;5.78;;;2.45;;
30723;SDS011;17473;52.286;20.930;2023-05-10T07:36:51;8.70;;;2.50;;
30723;SDS011;17473;52.286;20.930;2023-05-10T07:39:19;3.78;;;2.10;;
30723;SDS011;17473;52.286;20.930;2023-05-10T07:41:53;5.78;;;2.88;;
30723;SDS011;17473;52.286;20.930;2023-05-10T07:44:21;7.15;;;2.45;;
30723;SDS011;17473;52.286;20.930;2023-05-10T07:46:49;4.45;;;2.17;;
30723;SDS011;17473;52.286;20.930;2023-05-10T07:49:16;6.22;;;2.15;;
30723;SDS011;17473;52.286;20.930;2023-05-10T07:51:43;7.07;;;2.70;;
30723;SDS011;17473;52.286;20.930;2023-05-10T07:54:10;3.30;;;2.10;;
30723;SDS011;17473;52.286;20.930;2023-05-10T07:56:38;7.45;;;2.28;;
30723;SDS011;17473;52.286;20.930;2023-05-10T07:59:14;4.82;;;2.08;;
30723;SDS011;17473;52.286;20.930;2023-05-10T08:01:42;4.80;;;2.40;;
30723;SDS011;17473;52.286;20.930;2023-05-10T08:04:11;8.02;;;2.90;;
30723;SDS011;17473;52.286;20.930;2023-05-10T08:06:39;10.20;;;2.95;;
30723;SDS011;17473;52.286;20.930;2023-05-10T08:09:07;4.82;;;2.47;;
30723;SDS011;17473;52.286;20.930;2023-05-10T08:11:34;5.32;;;2.10;;
30723;SDS011;17473;52.286;20.930;2023-05-10T08:14:02;5.32;;;2.38;;
30723;SDS011;17473;52.286;20.930;2023-05-10T08:16:29;9.63;;;2.45;;
30723;SDS011;17473;52.286;20.930;2023-05-10T08:18:56;8.52;;;2.45;;
30723;SDS011;17473;52.286;20.930;2023-05-10T08:21:23;4.30;;;2.38;;
30723;SDS011;17473;52.286;20.930;2023-05-10T08:23:50;3.53;;;2.30;;
30723;SDS011;17473;52.286;20.930;2023-05-10T08:26:17;8.50;;;2.30;;
30723;SDS011;17473;52.286;20.930;2023-05-10T08:28:44;5.80;;;2.13;;
30723;SDS011;17473;52.286;20.930;2023-05-10T08:31:11;10.10;;;2.50;;
30723;SDS011;17473;52.286;20.930;2023-05-10T08:33:38;8.48;;;2.20;;
30723;SDS011;17473;52.286;20.930;2023-05-10T08:36:08;6.15;;;1.90;;
30723;SDS011;17473;52.286;20.930;2023-05-10T08:38:36;6.10;;;2.35;;
30723;SDS011;17473;52.286;20.930;2023-05-10T08:41:04;3.65;;;2.00;;
30723;SDS011;17473;52.286;20.930;2023-05-10T08:43:32;4.30;;;1.90;;
30723;SDS011;17473;52.286;20.930;2023-05-10T08:46:01;2.63;;;2.00;;
30723;SDS011;17473;52.286;20.930;2023-05-10T08:48:31;6.68;;;2.40;;
30723;SDS011;17473;52.286;20.930;2023-05-10T08:51:01;3.63;;;2.08;;
30723;SDS011;17473;52.286;20.930;2023-05-10T08:53:30;8.52;;;2.28;;
30723;SDS011;17473;52.286;20.930;2023-05-10T08:56:02;3.55;;;2.20;;
30723;SDS011;17473;52.286;20.930;2023-05-10T08:58:30;3.30;;;2.00;;
30723;SDS011;17473;52.286;20.930;2023-05-10T09:00:57;5.13;;;2.35;;
30723;SDS011;17473;52.286;20.930;2023-05-10T09:03:27;7.13;;;2.60;;
30723;SDS011;17473;52.286;20.930;2023-05-10T09:05:54;6.68;;;2.30;;
30723;SDS011;17473;52.286;20.930;2023-05-10T09:08:22;4.90;;;2.05;;
30723;SDS011;17473;52.286;20.930;2023-05-10T09:10:52;4.80;;;2.13;;
30723;SDS011;17473;52.286;20.930;2023-05-10T09:13:21;2.45;;;2.05;;
30723;SDS011;17473;52.286;20.930;2023-05-10T09:15:49;5.82;;;2.30;;
30723;SDS011;17473;52.286;20.930;2023-05-10T09:18:18;5.82;;;1.92;;
30723;SDS011;17473;52.286;20.930;2023-05-10T09:20:45;5.93;;;2.40;;
30723;SDS011;17473;52.286;20.930;2023-05-10T09:23:12;7.95;;;2.53;;
30723;SDS011;17473;52.286;20.930;2023-05-10T09:25:41;8.95;;;2.50;;
30723;SDS011;17473;52.286;20.930;2023-05-10T09:28:08;9.93;;;2.75;;
30723;SDS011;17473;52.286;20.930;2023-05-10T09:30:35;8.30;;;2.85;;
30723;SDS011;17473;52.286;20.930;2023-05-10T09:33:03;8.60;;;2.10;;
30723;SDS011;17473;52.286;20.930;2023-05-10T09:35:31;3.22;;;2.00;;
30723;SDS011;17473;52.286;20.930;2023-05-10T09:38:02;5.80;;;2.25;;
30723;SDS011;17473;52.286;20.930;2023-05-10T09:40:31;6.47;;;2.42;;
30723;SDS011;17473;52.286;20.930;2023-05-10T09:42:59;5.75;;;2.15;;
30723;SDS011;17473;52.286;20.930;2023-05-10T09:45:30;6.15;;;2.53;;
30723;SDS011;17473;52.286;20.930;2023-05-10T09:48:03;5.70;;;2.30;;
30723;SDS011;17473;52.286;20.930;2023-05-10T09:50:30;8.50;;;2.67;;
30723;SDS011;17473;52.286;20.930;2023-05-10T09:52:59;7.35;;;2.47;;
30723;SDS011;17473;52.286;20.930;2023-05-10T09:58:15;5.65;;;2.28;;
30723;SDS011;17473;52.286;20.930;2023-05-10T10:00:43;7.03;;;2.55;;
30723;SDS011;17473;52.286;20.930;2023-05-10T10:03:18;4.95;;;2.42;;
30723;SDS011;17473;52.286;20.930;2023-05-10T10:05:47;3.40;;;2.10;;
30723;SDS011;17473;52.286;20.930;2023-05-10T10:08:15;4.65;;;2.10;;
30723;SDS011;17473;52.286;20.930;2023-05-10T10:10:43;3.85;;;2.03;;
30723;SDS011;17473;52.286;20.930;2023-05-10T10:13:12;3.47;;;2.40;;
30723;SDS011;17473;52.286;20.930;2023-05-10T10:15:40;4.82;;;2.38;;
30723;SDS011;17473;52.286;20.930;2023-05-10T10:18:13;5.90;;;2.65;;
30723;SDS011;17473;52.286;20.930;2023-05-10T10:20:41;3.22;;;2.05;;
30723;SDS011;17473;52.286;20.930;2023-05-10T10:23:09;5.63;;;2.25;;
30723;SDS011;17473;52.286;20.930;2023-05-10T10:25:36;9.02;;;2.60;;
30723;SDS011;17473;52.286;20.930;2023-05-10T10:28:09;3.88;;;1.80;;
30723;SDS011;17473;52.286;20.930;2023-05-10T10:30:53;4.13;;;2.30;;
30723;SDS011;17473;52.286;20.930;2023-05-10T10:36:28;9.07;;;2.83;;
30723;SDS011;17473;52.286;20.930;2023-05-10T10:38:59;2.78;;;2.30;;
30723;SDS011;17473;52.286;20.930;2023-05-10T10:41:29;5.70;;;2.33;;
30723;SDS011;17473;52.286;20.930;2023-05-10T10:49:42;3.63;;;2.25;;
30723;SDS011;17473;52.286;20.930;2023-05-10T10:55:02;4.68;;;2.20;;
30723;SDS011;17473;52.286;20.930;2023-05-10T10:57:42;3.80;;;2.60;;
30723;SDS011;17473;52.286;20.930;2023-05-10T11:00:33;4.57;;;2.60;;
30723;SDS011;17473;52.286;20.930;2023-05-10T11:03:10;5.95;;;2.30;;
30723;SDS011;17473;52.286;20.930;2023-05-10T11:05:45;8.38;;;2.60;;
30723;SDS011;17473;52.286;20.930;2023-05-10T11:08:15;5.25;;;2.20;;
30723;SDS011;17473;52.286;20.930;2023-05-10T11:13:30;8.07;;;2.30;;
30723;SDS011;17473;52.286;20.930;2023-05-10T11:16:26;3.17;;;1.88;;
30723;SDS011;17473;52.286;20.930;2023-05-10T11:18:56;4.32;;;2.47;;
30723;SDS011;17473;52.286;20.930;2023-05-10T11:21:29;7.70;;;2.47;;
30723;SDS011;17473;52.286;20.930;2023-05-10T11:24:00;4.30;;;2.05;;
30723;SDS011;17473;52.286;20.930;2023-05-10T11:26:33;11.18;;;2.90;;
30723;SDS011;17473;52.286;20.930;2023-05-10T11:29:01;6.18;;;2.22;;
30723;SDS011;17473;52.286;20.930;2023-05-10T11:31:30;4.70;;;2.47;;
30723;SDS011;17473;52.286;20.930;2023-05-10T11:33:58;8.93;;;2.60;;
30723;SDS011;17473;52.286;20.930;2023-05-10T11:36:32;3.90;;;2.22;;
30723;SDS011;17473;52.286;20.930;2023-05-10T11:39:02;4.53;;;1.85;;
30723;SDS011;17473;52.286;20.930;2023-05-10T11:41:31;3.83;;;1.90;;
30723;SDS011;17473;52.286;20.930;2023-05-10T11:43:59;6.68;;;2.45;;
30723;SDS011;17473;52.286;20.930;2023-05-10T11:46:26;3.55;;;2.47;;
30723;SDS011;17473;52.286;20.930;2023-05-10T11:48:58;11.68;;;2.38;;
30723;SDS011;17473;52.286;20.930;2023-05-10T11:51:28;3.63;;;2.15;;
30723;SDS011;17473;52.286;20.930;2023-05-10T11:53:55;3.50;;;2.10;;
30723;SDS011;17473;52.286;20.930;2023-05-10T11:56:23;7.05;;;2.47;;
30723;SDS011;17473;52.286;20.930;2023-05-10T11:58:53;5.45;;;2.00;;
30723;SDS011;17473;52.286;20.930;2023-05-10T12:01:23;10.63;;;2.70;;
30723;SDS011;17473;52.286;20.930;2023-05-10T12:03:52;5.75;;;2.90;;
30723;SDS011;17473;52.286;20.930;2023-05-10T12:06:28;13.23;;;2.38;;
30723;SDS011;17473;52.286;20.930;2023-05-10T12:09:05;5.40;;;2.08;;
30723;SDS011;17473;52.286;20.930;2023-05-10T12:11:36;10.00;;;2.58;;
30723;SDS011;17473;52.286;20.930;2023-05-10T12:14:09;9.30;;;2.42;;
30723;SDS011;17473;52.286;20.930;2023-05-10T12:16:37;15.20;;;2.33;;
30723;SDS011;17473;52.286;20.930;2023-05-10T12:19:04;6.55;;;2.15;;
30723;SDS011;17473;52.286;20.930;2023-05-10T12:21:32;7.15;;;2.10;;
30723;SDS011;17473;52.286;20.930;2023-05-10T12:24:01;6.35;;;2.40;;
30723;SDS011;17473;52.286;20.930;2023-05-10T12:26:29;6.13;;;2.60;;
30723;SDS011;17473;52.286;20.930;2023-05-10T12:29:12;6.60;;;2.42;;
30723;SDS011;17473;52.286;20.930;2023-05-10T12:31:58;4.55;;;2.25;;
30723;SDS011;17473;52.286;20.930;2023-05-10T12:34:26;11.15;;;2.85;;
30723;SDS011;17473;52.286;20.930;2023-05-10T12:36:59;4.07;;;2.53;;
30723;SDS011;17473;52.286;20.930;2023-05-10T12:39:37;3.90;;;2.08;;
30723;SDS011;17473;52.286;20.930;2023-05-10T12:42:06;5.63;;;2.55;;
30723;SDS011;17473;52.286;20.930;2023-05-10T12:44:33;8.13;;;2.15;;
30723;SDS011;17473;52.286;20.930;2023-05-10T12:47:00;5.63;;;1.95;;
30723;SDS011;17473;52.286;20.930;2023-05-10T12:49:27;6.57;;;1.90;;
30723;SDS011;17473;52.286;20.930;2023-05-10T12:51:54;11.95;;;2.78;;
30723;SDS011;17473;52.286;20.930;2023-05-10T12:54:21;5.57;;;2.35;;
30723;SDS011;17473;52.286;20.930;2023-05-10T12:56:48;5.90;;;2.83;;
30723;SDS011;17473;52.286;20.930;2023-05-10T12:59:15;6.05;;;2.08;;
30723;SDS011;17473;52.286;20.930;2023-05-10T13:01:42;4.28;;;2.33;;
30723;SDS011;17473;52.286;20.930;2023-05-10T13:04:10;5.32;;;2.50;;
30723;SDS011;17473;52.286;20.930;2023-05-10T13:06:37;9.68;;;2.60;;
30723;SDS011;17473;52.286;20.930;2023-05-10T13:09:04;3.25;;;1.80;;
30723;SDS011;17473;52.286;20.930;2023-05-10T13:11:31;3.88;;;1.98;;
30723;SDS011;17473;52.286;20.930;2023-05-10T13:13:59;2.45;;;1.83;;
30723;SDS011;17473;52.286;20.930;2023-05-10T13:16:26;4.88;;;2.17;;
30723;SDS011;17473;52.286;20.930;2023-05-10T13:18:54;12.75;;;2.75;;
30723;SDS011;17473;52.286;20.930;2023-05-10T13:21:21;6.40;;;2.13;;
30723;SDS011;17473;52.286;20.930;2023-05-10T13:23:50;6.50;;;2.40;;
30723;SDS011;17473;52.286;20.930;2023-05-10T13:26:17;3.85;;;2.08;;
30723;SDS011;17473;52.286;20.930;2023-05-10T13:28:45;9.18;;;2.08;;
30723;SDS011;17473;52.286;20.930;2023-05-10T13:31:12;6.95;;;2.20;;
30723;SDS011;17473;52.286;20.930;2023-05-10T13:33:39;5.40;;;2.17;;
30723;SDS011;17473;52.286;20.930;2023-05-10T13:36:06;6.45;;;2.05;;
30723;SDS011;17473;52.286;20.930;2023-05-10T13:38:34;4.50;;;2.28;;
30723;SDS011;17473;52.286;20.930;2023-05-10T13:41:01;4.72;;;2.60;;
30723;SDS011;17473;52.286;20.930;2023-05-10T13:43:28;4.10;;;1.98;;
30723;SDS011;17473;52.286;20.930;2023-05-10T13:45:56;9.05;;;2.60;;
30723;SDS011;17473;52.286;20.930;2023-05-10T13:48:23;5.22;;;2.47;;
30723;SDS011;17473;52.286;20.930;2023-05-10T13:50:50;2.97;;;2.13;;
30723;SDS011;17473;52.286;20.930;2023-05-10T13:53:17;2.53;;;2.10;;
30723;SDS011;17473;52.286;20.930;2023-05-10T13:55:44;8.57;;;2.72;;
30723;SDS011;17473;52.286;20.930;2023-05-10T13:58:11;2.90;;;2.10;;
30723;SDS011;17473;52.286;20.930;2023-05-10T14:00:39;5.78;;;2.13;;
30723;SDS011;17473;52.286;20.930;2023-05-10T14:03:06;12.35;;;2.10;;
30723;SDS011;17473;52.286;20.930;2023-05-10T14:05:35;4.60;;;1.95;;
30723;SDS011;17473;52.286;20.930;2023-05-10T14:08:02;7.07;;;2.58;;
30723;SDS011;17473;52.286;20.930;2023-05-10T14:10:30;6.47;;;2.92;;
30723;SDS011;17473;52.286;20.930;2023-05-10T14:12:57;4.35;;;2.10;;
30723;SDS011;17473;52.286;20.930;2023-05-10T14:15:24;2.90;;;1.77;;
30723;SDS011;17473;52.286;20.930;2023-05-10T14:17:52;5.38;;;2.40;;
30723;SDS011;17473;52.286;20.930;2023-05-10T14:20:19;4.78;;;2.10;;
30723;SDS011;17473;52.286;20.930;2023-05-10T14:22:46;4.03;;;1.90;;
30723;SDS011;17473;52.286;20.930;2023-05-10T14:25:13;2.50;;;1.90;;
30723;SDS011;17473;52.286;20.930;2023-05-10T14:27:41;12.70;;;2.83;;
30723;SDS011;17473;52.286;20.930;2023-05-10T14:30:09;4.60;;;2.47;;
30723;SDS011;17473;52.286;20.930;2023-05-10T14:32:36;8.35;;;2.10;;
30723;SDS011;17473;52.286;20.930;2023-05-10T14:35:04;5.63;;;2.22;;
30723;SDS011;17473;52.286;20.930;2023-05-10T14:37:32;5.53;;;2.28;;
30723;SDS011;17473;52.286;20.930;2023-05-10T14:40:00;5.93;;;2.03;;
30723;SDS011;17473;52.286;20.930;2023-05-10T14:42:27;4.35;;;2.58;;
30723;SDS011;17473;52.286;20.930;2023-05-10T14:44:54;5.88;;;2.17;;
30723;SDS011;17473;52.286;20.930;2023-05-10T14:47:21;4.35;;;2.17;;
30723;SDS011;17473;52.286;20.930;2023-05-10T14:49:48;3.85;;;2.20;;
30723;SDS011;17473;52.286;20.930;2023-05-10T14:52:16;5.65;;;2.65;;
30723;SDS011;17473;52.286;20.930;2023-05-10T14:54:43;3.78;;;2.15;;
30723;SDS011;17473;52.286;20.930;2023-05-10T14:57:11;7.95;;;2.20;;
30723;SDS011;17473;52.286;20.930;2023-05-10T14:59:39;8.82;;;2.05;;
30723;SDS011;17473;52.286;20.930;2023-05-10T15:02:06;6.43;;;1.90;;
30723;SDS011;17473;52.286;20.930;2023-05-10T15:04:34;3.78;;;2.03;;
30723;SDS011;17473;52.286;20.930;2023-05-10T15:07:02;3.47;;;2.17;;
30723;SDS011;17473;52.286;20.930;2023-05-10T15:09:30;2.35;;;1.80;;
30723;SDS011;17473;52.286;20.930;2023-05-10T15:11:57;3.33;;;2.20;;
30723;SDS011;17473;52.286;20.930;2023-05-10T15:14:24;7.70;;;2.25;;
30723;SDS011;17473;52.286;20.930;2023-05-10T15:16:51;3.65;;;2.05;;
30723;SDS011;17473;52.286;20.930;2023-05-10T15:19:19;6.13;;;2.15;;